sensor_id;sensor_type;location;lat;lon;timestamp;pressure;altitude;pressure_sealevel;temperature;humidity
71643;BME280;59438;45.014;39.006;2022-12-29T00:02:20;102797.19;;;4.12;72.78
71643;BME280;59438;45.014;39.006;2022-12-29T00:04:46;102809.34;;;4.13;72.44
71643;BME280;59438;45.014;39.006;2022-12-29T00:07:12;102810.22;;;4.14;72.50
71643;BME280;59438;45.014;39.006;2022-12-29T00:09:39;102789.84;;;3.94;72.29
71643;BME280;59438;45.014;39.006;2022-12-29T00:12:05;102803.28;;;4.13;72.51
71643;BME280;59438;45.014;39.006;2022-12-29T00:14:32;102803.28;;;4.13;72.47
71643;BME280;59438;45.014;39.006;2022-12-29T00:16:59;102807.59;;;4.12;72.50
71643;BME280;59438;45.014;39.006;2022-12-29T00:19:26;102809.34;;;4.13;72.45
71643;BME280;59438;45.014;39.006;2022-12-29T00:21:52;102810.22;;;4.14;72.49
71643;BME280;59438;45.014;39.006;2022-12-29T00:24:20;102811.03;;;4.11;72.56
71643;BME280;59438;45.014;39.006;2022-12-29T00:26:47;102804.88;;;4.08;72.70
71643;BME280;59438;45.014;39.006;2022-12-29T00:29:14;102804.94;;;4.11;72.45
71643;BME280;59438;45.014;39.006;2022-12-29T00:31:40;102809.28;;;4.10;72.60
71643;BME280;59438;45.014;39.006;2022-12-29T00:34:10;102816.22;;;4.11;72.45
71643;BME280;59438;45.014;39.006;2022-12-29T00:36:39;102811.84;;;4.09;72.47
71643;BME280;59438;45.014;39.006;2022-12-29T00:39:11;102806.53;;;4.04;72.36
71643;BME280;59438;45.014;39.006;2022-12-29T00:41:38;102815.22;;;4.04;72.57
71643;BME280;59438;45.014;39.006;2022-12-29T00:44:05;102816.03;;;4.02;72.61
71643;BME280;59438;45.014;39.006;2022-12-29T00:46:32;102805.44;;;3.94;72.69
71643;BME280;59438;45.014;39.006;2022-12-29T00:48:58;102816.03;;;4.02;72.56
71643;BME280;59438;45.014;39.006;2022-12-29T00:51:26;102809.91;;;4.00;72.50
71643;BME280;59438;45.014;39.006;2022-12-29T00:53:53;102816.78;;;3.98;72.76
71643;BME280;59438;45.014;39.006;2022-12-29T00:56:19;102801.00;;;3.90;72.45
71643;BME280;59438;45.014;39.006;2022-12-29T00:58:45;102815.78;;;3.91;72.46
71643;BME280;59438;45.014;39.006;2022-12-29T01:01:30;102814.88;;;3.91;72.71
71643;BME280;59438;45.014;39.006;2022-12-29T01:03:57;102810.38;;;3.83;72.49
71643;BME280;59438;45.014;39.006;2022-12-29T01:06:23;102812.09;;;3.83;72.91
71643;BME280;59438;45.014;39.006;2022-12-29T01:08:52;102812.88;;;3.80;72.74
71643;BME280;59438;45.014;39.006;2022-12-29T01:11:18;102811.97;;;3.77;72.76
71643;BME280;59438;45.014;39.006;2022-12-29T01:13:44;102815.44;;;3.77;72.60
71643;BME280;59438;45.014;39.006;2022-12-29T01:16:11;102813.66;;;3.76;72.80
71643;BME280;59438;45.014;39.006;2022-12-29T01:18:41;102767.78;;;3.42;72.56
71643;BME280;59438;45.014;39.006;2022-12-29T01:21:07;102813.69;;;3.78;72.96
71643;BME280;59438;45.014;39.006;2022-12-29T01:23:34;102796.72;;;3.57;72.88
71643;BME280;59438;45.014;39.006;2022-12-29T01:26:10;102813.75;;;3.79;73.14
71643;BME280;59438;45.014;39.006;2022-12-29T01:28:36;102797.69;;;3.61;72.58
71643;BME280;59438;45.014;39.006;2022-12-29T01:31:02;102818.84;;;3.75;72.58
71643;BME280;59438;45.014;39.006;2022-12-29T01:33:30;102819.63;;;3.72;72.83
71643;BME280;59438;45.014;39.006;2022-12-29T01:36:15;102814.41;;;3.72;72.94
71643;BME280;59438;45.014;39.006;2022-12-29T01:38:42;102809.94;;;3.65;72.84
71643;BME280;59438;45.014;39.006;2022-12-29T01:41:13;102825.47;;;3.63;73.11
71643;BME280;59438;45.014;39.006;2022-12-29T01:43:43;102812.41;;;3.60;72.95
71643;BME280;59438;45.014;39.006;2022-12-29T01:46:18;102817.47;;;3.56;73.13
71643;BME280;59438;45.014;39.006;2022-12-29T01:48:46;102826.13;;;3.55;72.95
71643;BME280;59438;45.014;39.006;2022-12-29T01:51:15;102783.91;;;3.30;72.79
71643;BME280;59438;45.014;39.006;2022-12-29T01:59:15;102801.38;;;3.36;72.95
71643;BME280;59438;45.014;39.006;2022-12-29T02:01:44;102811.94;;;3.43;73.01
71643;BME280;59438;45.014;39.006;2022-12-29T02:04:11;102797.88;;;3.34;72.96
71643;BME280;59438;45.014;39.006;2022-12-29T02:06:42;102790.63;;;3.22;73.14
71643;BME280;59438;45.014;39.006;2022-12-29T02:09:11;102812.72;;;3.39;72.86
71643;BME280;59438;45.014;39.006;2022-12-29T02:11:39;102816.13;;;3.37;73.19
71643;BME280;59438;45.014;39.006;2022-12-29T02:14:08;102824.75;;;3.36;73.02
71643;BME280;59438;45.014;39.006;2022-12-29T02:16:47;102698.13;;;2.62;72.93
71643;BME280;59438;45.014;39.006;2022-12-29T02:20:02;102781.81;;;3.17;73.29
71643;BME280;59438;45.014;39.006;2022-12-29T02:22:42;102814.28;;;3.33;73.37
71643;BME280;59438;45.014;39.006;2022-12-29T02:25:32;102816.00;;;3.32;73.40
71643;BME280;59438;45.014;39.006;2022-12-29T02:28:24;102811.63;;;3.30;73.42
71643;BME280;59438;45.014;39.006;2022-12-29T02:31:08;102772.06;;;3.08;73.26
71643;BME280;59438;45.014;39.006;2022-12-29T02:33:45;102808.03;;;3.26;72.99
71643;BME280;59438;45.014;39.006;2022-12-29T02:36:36;102811.50;;;3.27;73.12
71643;BME280;59438;45.014;39.006;2022-12-29T02:39:12;102809.72;;;3.24;73.30
71643;BME280;59438;45.014;39.006;2022-12-29T02:41:48;102816.53;;;3.20;72.84
71643;BME280;59438;45.014;39.006;2022-12-29T02:44:25;102813.91;;;3.19;72.95
71643;BME280;59438;45.014;39.006;2022-12-29T02:47:00;102820.75;;;3.17;72.59
71643;BME280;59438;45.014;39.006;2022-12-29T02:49:33;102818.91;;;3.13;72.74
71643;BME280;59438;45.014;39.006;2022-12-29T02:52:04;102826.59;;;3.08;72.93
71643;BME280;59438;45.014;39.006;2022-12-29T02:54:32;102825.66;;;3.06;72.73
71643;BME280;59438;45.014;39.006;2022-12-29T02:56:59;102829.88;;;3.02;72.72
71643;BME280;59438;45.014;39.006;2022-12-29T02:59:25;102828.09;;;3.00;72.80
71643;BME280;59438;45.014;39.006;2022-12-29T03:05:04;102817.53;;;2.94;72.76
71643;BME280;59438;45.014;39.006;2022-12-29T03:07:42;102828.72;;;2.91;72.85
71643;BME280;59438;45.014;39.006;2022-12-29T03:10:19;102836.41;;;2.88;72.74
71643;BME280;59438;45.014;39.006;2022-12-29T03:12:56;102827.50;;;2.80;73.01
71643;BME280;59438;45.014;39.006;2022-12-29T03:15:33;102831.09;;;2.83;72.58
71643;BME280;59438;45.014;39.006;2022-12-29T03:18:05;102836.22;;;2.80;73.02
71643;BME280;59438;45.014;39.006;2022-12-29T03:23:23;102821.97;;;2.68;72.77
71643;BME280;59438;45.014;39.006;2022-12-29T03:25:53;102833.38;;;2.73;72.90
71643;BME280;59438;45.014;39.006;2022-12-29T03:28:23;102828.81;;;2.64;72.60
71643;BME280;59438;45.014;39.006;2022-12-29T03:30:52;102824.34;;;2.60;72.27
71643;BME280;59438;45.014;39.006;2022-12-29T03:33:21;102838.34;;;2.65;73.11
71643;BME280;59438;45.014;39.006;2022-12-29T03:35:52;102799.59;;;2.42;72.47
71643;BME280;59438;45.014;39.006;2022-12-29T03:38:21;102843.56;;;2.67;72.66
71643;BME280;59438;45.014;39.006;2022-12-29T03:40:52;102839.06;;;2.59;72.44
71643;BME280;59438;45.014;39.006;2022-12-29T03:43:19;102840.66;;;2.56;72.60
71643;BME280;59438;45.014;39.006;2022-12-29T03:45:45;102838.81;;;2.52;72.92
71643;BME280;59438;45.014;39.006;2022-12-29T03:48:12;102834.41;;;2.49;72.96
71643;BME280;59438;45.014;39.006;2022-12-29T03:53:24;102853.31;;;2.45;72.90
71643;BME280;59438;45.014;39.006;2022-12-29T03:56:09;102847.22;;;2.45;73.16
71643;BME280;59438;45.014;39.006;2022-12-29T03:58:35;102833.53;;;2.21;73.04
71643;BME280;59438;45.014;39.006;2022-12-29T04:01:02;102852.28;;;2.40;73.02
71643;BME280;59438;45.014;39.006;2022-12-29T04:03:28;102815.19;;;2.15;72.78
71643;BME280;59438;45.014;39.006;2022-12-29T04:05:54;102856.47;;;2.35;72.45
71643;BME280;59438;45.014;39.006;2022-12-29T04:08:21;102852.94;;;2.33;72.62
71643;BME280;59438;45.014;39.006;2022-12-29T04:10:49;102822.78;;;2.09;72.95
71643;BME280;59438;45.014;39.006;2022-12-29T04:13:16;102852.75;;;2.27;73.17
71643;BME280;59438;45.014;39.006;2022-12-29T04:15:43;102862.19;;;2.25;72.45
71643;BME280;59438;45.014;39.006;2022-12-29T04:18:09;102833.84;;;2.04;73.01
71643;BME280;59438;45.014;39.006;2022-12-29T04:20:36;102858.09;;;2.06;72.73
71643;BME280;59438;45.014;39.006;2022-12-29T04:23:02;102872.34;;;2.18;72.65
71643;BME280;59438;45.014;39.006;2022-12-29T04:25:30;102871.44;;;2.16;72.67
71643;BME280;59438;45.014;39.006;2022-12-29T04:27:58;102878.28;;;2.14;72.97
71643;BME280;59438;45.014;39.006;2022-12-29T04:30:43;102876.50;;;2.13;72.29
71643;BME280;59438;45.014;39.006;2022-12-29T04:33:09;102878.06;;;2.08;72.81
71643;BME280;59438;45.014;39.006;2022-12-29T04:35:36;102878.03;;;2.07;72.38
71643;BME280;59438;45.014;39.006;2022-12-29T04:38:03;102894.38;;;2.06;72.64
71643;BME280;59438;45.014;39.006;2022-12-29T04:40:29;102889.94;;;2.01;72.28
71643;BME280;59438;45.014;39.006;2022-12-29T04:42:55;102892.44;;;1.98;72.57
71643;BME280;59438;45.014;39.006;2022-12-29T04:45:23;102894.09;;;1.96;72.73
71643;BME280;59438;45.014;39.006;2022-12-29T04:47:50;102898.34;;;1.94;72.95
71643;BME280;59438;45.014;39.006;2022-12-29T04:50:16;102894.88;;;1.94;72.44
71643;BME280;59438;45.014;39.006;2022-12-29T04:52:42;102897.28;;;1.89;72.21
71643;BME280;59438;45.014;39.006;2022-12-29T04:55:09;102892.81;;;1.84;72.15
71643;BME280;59438;45.014;39.006;2022-12-29T04:57:35;102900.47;;;1.80;72.48
71643;BME280;59438;45.014;39.006;2022-12-29T05:00:02;102902.91;;;1.76;72.57
71643;BME280;59438;45.014;39.006;2022-12-29T05:02:30;102907.94;;;1.71;72.57
71643;BME280;59438;45.014;39.006;2022-12-29T05:04:56;102911.34;;;1.70;72.97
71643;BME280;59438;45.014;39.006;2022-12-29T05:07:41;102909.63;;;1.71;73.07
71643;BME280;59438;45.014;39.006;2022-12-29T05:12:52;102910.34;;;1.67;72.37
71643;BME280;59438;45.014;39.006;2022-12-29T05:15:19;102913.66;;;1.63;72.60
71643;BME280;59438;45.014;39.006;2022-12-29T05:17:47;102916.97;;;1.58;72.12
71643;BME280;59438;45.014;39.006;2022-12-29T05:20:13;102911.69;;;1.55;72.51
71643;BME280;59438;45.014;39.006;2022-12-29T05:22:39;102922.88;;;1.54;73.46
71643;BME280;59438;45.014;39.006;2022-12-29T05:25:06;102933.19;;;1.53;73.51
71643;BME280;59438;45.014;39.006;2022-12-29T05:27:33;102928.94;;;1.55;72.91
71643;BME280;59438;45.014;39.006;2022-12-29T05:29:59;102925.56;;;1.57;73.56
71643;BME280;59438;45.014;39.006;2022-12-29T05:32:26;102928.22;;;1.59;73.06
71643;BME280;59438;45.014;39.006;2022-12-29T05:34:53;102945.59;;;1.61;73.44
71643;BME280;59438;45.014;39.006;2022-12-29T05:37:20;102946.47;;;1.62;73.16
71643;BME280;59438;45.014;39.006;2022-12-29T05:42:49;102955.22;;;1.66;73.60
71643;BME280;59438;45.014;39.006;2022-12-29T05:45:16;102953.50;;;1.66;73.37
71643;BME280;59438;45.014;39.006;2022-12-29T05:47:42;102969.13;;;1.68;73.70
71643;BME280;59438;45.014;39.006;2022-12-29T05:50:10;102958.84;;;1.71;73.44
71643;BME280;59438;45.014;39.006;2022-12-29T05:52:36;102966.75;;;1.74;73.99
71643;BME280;59438;45.014;39.006;2022-12-29T05:55:03;102963.38;;;1.76;73.86
71643;BME280;59438;45.014;39.006;2022-12-29T05:57:29;102956.53;;;1.78;73.74
71643;BME280;59438;45.014;39.006;2022-12-29T05:59:55;102963.53;;;1.81;73.58
71643;BME280;59438;45.014;39.006;2022-12-29T06:02:22;102961.84;;;1.81;73.10
71643;BME280;59438;45.014;39.006;2022-12-29T06:07:34;102980.13;;;1.86;73.27
71643;BME280;59438;45.014;39.006;2022-12-29T06:10:00;102977.63;;;1.89;73.00
71643;BME280;59438;45.014;39.006;2022-12-29T06:12:27;102981.13;;;1.90;72.80
71643;BME280;59438;45.014;39.006;2022-12-29T06:14:53;102977.41;;;1.81;73.25
71643;BME280;59438;45.014;39.006;2022-12-29T06:17:19;102995.06;;;1.93;72.96
71643;BME280;59438;45.014;39.006;2022-12-29T06:19:46;102955.00;;;1.84;73.15
71643;BME280;59438;45.014;39.006;2022-12-29T06:22:12;102975.38;;;1.98;73.29
71643;BME280;59438;45.014;39.006;2022-12-29T06:24:40;102982.38;;;2.01;73.27
71643;BME280;59438;45.014;39.006;2022-12-29T06:27:06;102979.91;;;2.04;72.70
71643;BME280;59438;45.014;39.006;2022-12-29T06:29:33;102986.97;;;2.08;72.87
71643;BME280;59438;45.014;39.006;2022-12-29T06:31:59;102981.88;;;2.11;72.85
71643;BME280;59438;45.014;39.006;2022-12-29T06:34:25;102981.09;;;2.14;72.42
71643;BME280;59438;45.014;39.006;2022-12-29T06:36:52;102976.91;;;2.17;72.92
71643;BME280;59438;45.014;39.006;2022-12-29T06:39:18;102974.38;;;2.19;72.66
71643;BME280;59438;45.014;39.006;2022-12-29T06:41:46;102978.75;;;2.21;72.90
71643;BME280;59438;45.014;39.006;2022-12-29T06:44:12;102981.41;;;2.23;72.79
71643;BME280;59438;45.014;39.006;2022-12-29T06:46:39;102964.88;;;2.19;72.92
71643;BME280;59438;45.014;39.006;2022-12-29T06:49:05;102953.88;;;2.01;72.84
71643;BME280;59438;45.014;39.006;2022-12-29T06:51:32;102987.69;;;2.30;72.49
71643;BME280;59438;45.014;39.006;2022-12-29T06:53:58;102982.63;;;2.34;72.29
71643;BME280;59438;45.014;39.006;2022-12-29T06:56:24;102979.22;;;2.35;72.34
71643;BME280;59438;45.014;39.006;2022-12-29T06:58:52;102984.63;;;2.41;72.63
71643;BME280;59438;45.014;39.006;2022-12-29T07:01:18;102987.31;;;2.45;72.35
71643;BME280;59438;45.014;39.006;2022-12-29T07:03:45;102986.44;;;2.44;72.89
71643;BME280;59438;45.014;39.006;2022-12-29T07:06:11;102989.34;;;2.53;72.45
71643;BME280;59438;45.014;39.006;2022-12-29T07:08:37;102990.34;;;2.58;72.81
71643;BME280;59438;45.014;39.006;2022-12-29T07:11:04;102987.03;;;2.62;72.70
71643;BME280;59438;45.014;39.006;2022-12-29T07:13:30;102983.69;;;2.67;72.68
71643;BME280;59438;45.014;39.006;2022-12-29T07:16:16;102988.22;;;2.72;72.87
71643;BME280;59438;45.014;39.006;2022-12-29T07:18:43;102992.56;;;2.73;72.26
71643;BME280;59438;45.014;39.006;2022-12-29T07:21:09;102990.84;;;2.74;73.02
71643;BME280;59438;45.014;39.006;2022-12-29T07:23:35;102997.88;;;2.78;72.36
71643;BME280;59438;45.014;39.006;2022-12-29T07:26:03;102995.47;;;2.82;72.41
71643;BME280;59438;45.014;39.006;2022-12-29T07:28:30;102994.72;;;2.87;72.42
71643;BME280;59438;45.014;39.006;2022-12-29T07:30:57;102999.19;;;2.91;72.90
71643;BME280;59438;45.014;39.006;2022-12-29T07:33:25;102995.94;;;2.98;72.88
71643;BME280;59438;45.014;39.006;2022-12-29T07:35:51;102989.19;;;3.03;72.63
71643;BME280;59438;45.014;39.006;2022-12-29T07:38:18;102999.75;;;3.09;72.77
71643;BME280;59438;45.014;39.006;2022-12-29T07:40:44;102997.34;;;3.15;72.38
71643;BME280;59438;45.014;39.006;2022-12-29T07:46:13;102980.28;;;3.23;71.96
71643;BME280;59438;45.014;39.006;2022-12-29T07:48:41;102991.84;;;3.35;72.13
71643;BME280;59438;45.014;39.006;2022-12-29T07:51:08;102991.97;;;3.39;71.54
71643;BME280;59438;45.014;39.006;2022-12-29T07:53:34;102987.81;;;3.45;71.77
71643;BME280;59438;45.014;39.006;2022-12-29T07:56:00;102997.50;;;3.50;71.89
71643;BME280;59438;45.014;39.006;2022-12-29T07:58:27;102988.97;;;3.56;71.57
71643;BME280;59438;45.014;39.006;2022-12-29T08:00:53;102990.00;;;3.61;71.58
71643;BME280;59438;45.014;39.006;2022-12-29T08:03:20;102984.06;;;3.65;71.35
71643;BME280;59438;45.014;39.006;2022-12-29T08:05:48;102972.81;;;3.66;70.99
71643;BME280;59438;45.014;39.006;2022-12-29T08:08:14;102972.91;;;3.69;70.93
71643;BME280;59438;45.014;39.006;2022-12-29T08:10:41;102968.00;;;3.80;71.23
71643;BME280;59438;45.014;39.006;2022-12-29T08:13:07;102969.91;;;3.86;70.93
71643;BME280;59438;45.014;39.006;2022-12-29T08:15:34;102963.94;;;3.90;70.81
71643;BME280;59438;45.014;39.006;2022-12-29T08:18:00;102944.88;;;3.91;70.76
71643;BME280;59438;45.014;39.006;2022-12-29T08:20:27;102953.75;;;3.99;70.48
71643;BME280;59438;45.014;39.006;2022-12-29T08:23:13;102954.78;;;4.06;69.85
71643;BME280;59438;45.014;39.006;2022-12-29T08:25:39;102947.91;;;4.08;69.96
71643;BME280;59438;45.014;39.006;2022-12-29T08:28:05;102949.75;;;4.10;69.67
71643;BME280;59438;45.014;39.006;2022-12-29T08:30:32;102940.31;;;4.15;69.47
71643;BME280;59438;45.014;39.006;2022-12-29T08:36:02;102940.56;;;4.24;68.88
71643;BME280;59438;45.014;39.006;2022-12-29T08:38:30;102931.13;;;4.30;68.77
71643;BME280;59438;45.014;39.006;2022-12-29T08:40:57;102930.38;;;4.34;68.40
71643;BME280;59438;45.014;39.006;2022-12-29T08:43:24;102912.97;;;4.31;68.58
71643;BME280;59438;45.014;39.006;2022-12-29T08:45:51;102935.81;;;4.43;68.55
71643;BME280;59438;45.014;39.006;2022-12-29T08:48:17;102935.06;;;4.49;68.41
71643;BME280;59438;45.014;39.006;2022-12-29T08:50:44;102923.00;;;4.52;68.03
71643;BME280;59438;45.014;39.006;2022-12-29T08:53:10;102929.13;;;4.54;67.95
71643;BME280;59438;45.014;39.006;2022-12-29T08:55:38;102923.09;;;4.57;67.56
71643;BME280;59438;45.014;39.006;2022-12-29T08:58:04;102917.06;;;4.58;67.77
71643;BME280;59438;45.014;39.006;2022-12-29T09:00:31;102922.31;;;4.59;67.94
71643;BME280;59438;45.014;39.006;2022-12-29T09:02:57;102915.41;;;4.61;67.34
71643;BME280;59438;45.014;39.006;2022-12-29T09:05:23;102913.69;;;4.62;67.60
71643;BME280;59438;45.014;39.006;2022-12-29T09:07:50;102914.59;;;4.64;67.71
71643;BME280;59438;45.014;39.006;2022-12-29T09:10:16;102907.66;;;4.64;67.67
71643;BME280;59438;45.014;39.006;2022-12-29T09:12:44;102911.19;;;4.67;66.96
71643;BME280;59438;45.014;39.006;2022-12-29T09:15:10;102904.28;;;4.69;67.34
71643;BME280;59438;45.014;39.006;2022-12-29T09:17:37;102897.38;;;4.71;67.18
71643;BME280;59438;45.014;39.006;2022-12-29T09:20:04;102904.31;;;4.70;67.57
71643;BME280;59438;45.014;39.006;2022-12-29T09:22:30;102884.25;;;4.64;66.49
71643;BME280;59438;45.014;39.006;2022-12-29T09:24:57;102885.28;;;4.73;66.45
71643;BME280;59438;45.014;39.006;2022-12-29T09:27:23;102899.22;;;4.75;66.32
71643;BME280;59438;45.014;39.006;2022-12-29T09:29:51;102883.69;;;4.78;66.00
71643;BME280;59438;45.014;39.006;2022-12-29T09:32:17;102882.00;;;4.80;66.68
71643;BME280;59438;45.014;39.006;2022-12-29T09:34:44;102883.72;;;4.81;66.54
71643;BME280;59438;45.014;39.006;2022-12-29T09:37:10;102886.41;;;4.84;65.80
71643;BME280;59438;45.014;39.006;2022-12-29T09:39:36;102861.94;;;4.77;66.10
71643;BME280;59438;45.014;39.006;2022-12-29T09:42:07;102870.94;;;4.90;64.22
71643;BME280;59438;45.014;39.006;2022-12-29T09:44:49;102874.44;;;4.94;63.00
71643;BME280;59438;45.014;39.006;2022-12-29T09:47:20;102883.22;;;4.97;63.70
71643;BME280;59438;45.014;39.006;2022-12-29T09:49:49;102880.69;;;5.00;64.00
71643;BME280;59438;45.014;39.006;2022-12-29T09:52:21;102889.41;;;5.04;63.31
71643;BME280;59438;45.014;39.006;2022-12-29T09:54:50;102864.41;;;5.12;63.62
71643;BME280;59438;45.014;39.006;2022-12-29T09:57:21;102876.56;;;5.12;62.61
71643;BME280;59438;45.014;39.006;2022-12-29T09:59:52;102865.31;;;5.13;63.43
71643;BME280;59438;45.014;39.006;2022-12-29T10:02:36;102861.97;;;5.20;62.12
71643;BME280;59438;45.014;39.006;2022-12-29T10:05:04;102864.59;;;5.21;64.31
71643;BME280;59438;45.014;39.006;2022-12-29T10:07:42;102854.22;;;5.24;62.75
71643;BME280;59438;45.014;39.006;2022-12-29T10:10:20;102868.28;;;5.33;62.08
71643;BME280;59438;45.014;39.006;2022-12-29T10:12:57;102826.34;;;5.20;62.00
71643;BME280;59438;45.014;39.006;2022-12-29T10:15:38;102857.22;;;5.44;60.87
71643;BME280;59438;45.014;39.006;2022-12-29T10:18:19;102856.47;;;5.52;61.90
71643;BME280;59438;45.014;39.006;2022-12-29T10:20:53;102852.19;;;5.55;61.55
71643;BME280;59438;45.014;39.006;2022-12-29T10:23:29;102827.81;;;5.53;61.18
71643;BME280;59438;45.014;39.006;2022-12-29T10:25:59;102845.47;;;5.67;62.07
71643;BME280;59438;45.014;39.006;2022-12-29T10:28:34;102831.66;;;5.74;60.97
71643;BME280;59438;45.014;39.006;2022-12-29T10:31:05;102834.34;;;5.78;61.23
71643;BME280;59438;45.014;39.006;2022-12-29T10:33:39;102823.06;;;5.79;59.96
71643;BME280;59438;45.014;39.006;2022-12-29T10:36:13;102829.31;;;5.91;59.60
71643;BME280;59438;45.014;39.006;2022-12-29T10:38:47;102827.72;;;5.96;59.19
71643;BME280;59438;45.014;39.006;2022-12-29T10:41:18;102828.69;;;6.02;60.47
71643;BME280;59438;45.014;39.006;2022-12-29T10:43:47;102831.47;;;6.12;60.99
71643;BME280;59438;45.014;39.006;2022-12-29T10:46:17;102824.53;;;6.15;60.56
71643;BME280;59438;45.014;39.006;2022-12-29T10:48:46;102833.47;;;6.31;60.84
71643;BME280;59438;45.014;39.006;2022-12-29T10:51:20;102788.91;;;6.17;59.67
71643;BME280;59438;45.014;39.006;2022-12-29T10:53:51;102840.75;;;6.54;59.78
71643;BME280;59438;45.014;39.006;2022-12-29T10:56:25;102823.44;;;6.60;58.96
71643;BME280;59438;45.014;39.006;2022-12-29T10:58:54;102825.31;;;6.71;59.62
71643;BME280;59438;45.014;39.006;2022-12-29T11:01:24;102825.50;;;6.84;60.26
71643;BME280;59438;45.014;39.006;2022-12-29T11:04:03;102823.00;;;6.95;57.18
71643;BME280;59438;45.014;39.006;2022-12-29T11:06:30;102827.44;;;7.04;60.13
71643;BME280;59438;45.014;39.006;2022-12-29T11:09:01;102831.03;;;7.12;59.12
71643;BME280;59438;45.014;39.006;2022-12-29T11:11:33;102811.91;;;7.15;57.69
71643;BME280;59438;45.014;39.006;2022-12-29T11:14:08;102815.44;;;7.20;58.50
71643;BME280;59438;45.014;39.006;2022-12-29T11:16:36;102817.22;;;7.24;59.79
71643;BME280;59438;45.014;39.006;2022-12-29T11:19:05;102822.53;;;7.30;58.45
71643;BME280;59438;45.014;39.006;2022-12-29T11:21:33;102817.34;;;7.33;58.62
71643;BME280;59438;45.014;39.006;2022-12-29T11:24:01;102817.34;;;7.36;58.22
71643;BME280;59438;45.014;39.006;2022-12-29T11:26:30;102801.66;;;7.36;58.66
71643;BME280;59438;45.014;39.006;2022-12-29T11:29:17;102734.22;;;6.98;56.75
71643;BME280;59438;45.014;39.006;2022-12-29T11:31:47;102800.81;;;7.39;58.39
71643;BME280;59438;45.014;39.006;2022-12-29T11:34:20;102806.03;;;7.39;55.97
71643;BME280;59438;45.014;39.006;2022-12-29T11:39:38;102797.38;;;7.44;56.19
71643;BME280;59438;45.014;39.006;2022-12-29T11:42:10;102801.75;;;7.47;57.62
71643;BME280;59438;45.014;39.006;2022-12-29T11:44:43;102793.09;;;7.50;56.15
71643;BME280;59438;45.014;39.006;2022-12-29T11:47:14;102776.47;;;7.44;57.09
71643;BME280;59438;45.014;39.006;2022-12-29T11:55:22;102798.41;;;7.60;56.88
71643;BME280;59438;45.014;39.006;2022-12-29T11:57:50;102804.53;;;7.62;57.77
71643;BME280;59438;45.014;39.006;2022-12-29T12:00:19;102808.00;;;7.63;57.96
71643;BME280;59438;45.014;39.006;2022-12-29T12:02:54;102809.78;;;7.67;55.18
71643;BME280;59438;45.014;39.006;2022-12-29T12:05:30;102811.53;;;7.66;55.82
71643;BME280;59438;45.014;39.006;2022-12-29T12:08:03;102799.28;;;7.58;56.46
71643;BME280;59438;45.014;39.006;2022-12-29T12:10:37;102812.38;;;7.62;55.74
71643;BME280;59438;45.014;39.006;2022-12-29T12:13:08;102812.34;;;7.61;55.90
71643;BME280;59438;45.014;39.006;2022-12-29T12:15:44;102812.34;;;7.58;56.13
71643;BME280;59438;45.014;39.006;2022-12-29T12:18:17;102808.78;;;7.53;55.40
71643;BME280;59438;45.014;39.006;2022-12-29T12:20:51;102807.00;;;7.45;54.98
71643;BME280;59438;45.014;39.006;2022-12-29T12:23:27;102820.09;;;7.49;55.50
71643;BME280;59438;45.014;39.006;2022-12-29T12:26:16;102815.75;;;7.47;55.71
71643;BME280;59438;45.014;39.006;2022-12-29T12:28:52;102785.00;;;7.23;55.75
71643;BME280;59438;45.014;39.006;2022-12-29T12:31:39;102811.25;;;7.36;56.03
71643;BME280;59438;45.014;39.006;2022-12-29T12:34:27;102812.97;;;7.34;56.69
71643;BME280;59438;45.014;39.006;2022-12-29T12:37:15;102810.31;;;7.29;56.48
71643;BME280;59438;45.014;39.006;2022-12-29T12:40:15;102799.81;;;7.26;56.32
71643;BME280;59438;45.014;39.006;2022-12-29T12:42:57;102811.97;;;7.19;56.91
71643;BME280;59438;45.014;39.006;2022-12-29T12:45:42;102808.41;;;7.14;56.86
71643;BME280;59438;45.014;39.006;2022-12-29T12:48:36;102812.75;;;7.11;56.92
71643;BME280;59438;45.014;39.006;2022-12-29T12:51:15;102774.03;;;6.79;57.18
71643;BME280;59438;45.014;39.006;2022-12-29T12:54:01;102816.94;;;6.98;57.13
71643;BME280;59438;45.014;39.006;2022-12-29T12:56:47;102816.91;;;6.95;56.86
71643;BME280;59438;45.014;39.006;2022-12-29T12:59:30;102806.28;;;6.81;58.76
71643;BME280;59438;45.014;39.006;2022-12-29T13:02:06;102815.06;;;6.88;58.67
71643;BME280;59438;45.014;39.006;2022-12-29T13:04:52;102825.53;;;6.86;58.11
71643;BME280;59438;45.014;39.006;2022-12-29T13:07:31;102815.00;;;6.80;59.40
71643;BME280;59438;45.014;39.006;2022-12-29T13:10:19;102812.34;;;6.78;57.27
71643;BME280;59438;45.014;39.006;2022-12-29T13:15:43;102833.16;;;6.71;59.52
71643;BME280;59438;45.014;39.006;2022-12-29T13:18:21;102792.75;;;6.42;59.45
71643;BME280;59438;45.014;39.006;2022-12-29T13:20:53;102838.25;;;6.63;59.23
71643;BME280;59438;45.014;39.006;2022-12-29T13:23:27;102837.34;;;6.58;61.06
71643;BME280;59438;45.014;39.006;2022-12-29T13:26:03;102836.31;;;6.48;59.63
71643;BME280;59438;45.014;39.006;2022-12-29T13:28:36;102841.59;;;6.51;60.26
71643;BME280;59438;45.014;39.006;2022-12-29T13:31:10;102831.94;;;6.45;58.87
71643;BME280;59438;45.014;39.006;2022-12-29T13:33:46;102794.22;;;6.22;60.12
71643;BME280;59438;45.014;39.006;2022-12-29T13:36:21;102825.72;;;6.37;58.95
71643;BME280;59438;45.014;39.006;2022-12-29T13:38:51;102825.72;;;6.34;60.09
71643;BME280;59438;45.014;39.006;2022-12-29T13:41:27;102818.56;;;6.22;59.33
71643;BME280;59438;45.014;39.006;2022-12-29T13:46:42;102831.56;;;6.18;60.47
71643;BME280;59438;45.014;39.006;2022-12-29T13:49:13;102832.22;;;6.06;59.68
71643;BME280;59438;45.014;39.006;2022-12-29T13:51:48;102833.13;;;6.08;60.10